»·PEaware :: AAL9598 KGEG-KPDX

AAL9598 :: KGEG-KPDX

FLIGHT INFORMATION

Flight Status: Arrived
Operator:
American Airlines
More flights by this operator :: More flights under this callsign
Pilot: Renato C. (3281)
Aircraft: AIRBUS A320
(A320)
More flights by this aircraft type
Origin: KGEG Spokane Intl
United States
Destination: KPDX Portland Intl
United States
More flights between these airports :: More routes between these airports
Route: GEG3 ZEGRO JORAD HHOOD4
File this flight plan on PilotEdge
Remarks:
Altitude:
(Current/Filed)
F260
Speed:
(Current/Filed)
430kts
Departed: 11-Sep-18 07:48 PM
Arrived: 11-Sep-18 08:35 PM
Distance/Time
Traveled:
242nm/0:47
Distance/Time
To Go:
Arrived

Flight Plot

Page will automatically refresh every two minutes.

Flight plan parsing failed; only flown route is shown


Map Options




Map Legend


Flown Route
Filed Route
Departure Airport
Arrival Airport
Navaid (VOR, NDB)
Fix

Horizontal Profiles

Position Reports

Time Latitude Longitude Heading Altitude Ground
Speed
11-Sep-18 19:29 47.625608 -117.534069 279 2360ft 0kts
11-Sep-18 19:30 47.625608 -117.534069 279 2360ft 0kts
11-Sep-18 19:31 47.625608 -117.534069 279 2360ft 0kts
11-Sep-18 19:32 47.625608 -117.534069 279 2360ft 0kts
11-Sep-18 19:33 47.625608 -117.534069 279 2360ft 0kts
11-Sep-18 19:34 47.625608 -117.534069 279 2360ft 0kts
11-Sep-18 19:35 47.625608 -117.534069 279 2360ft 0kts
11-Sep-18 19:36 47.625608 -117.534069 279 2360ft 0kts
11-Sep-18 19:37 47.625608 -117.534069 279 2360ft 0kts
11-Sep-18 19:38 47.625608 -117.534069 279 2360ft 0kts
11-Sep-18 19:39 47.625608 -117.534069 279 2360ft 0kts
11-Sep-18 19:40 47.625608 -117.534069 279 2360ft 0kts
11-Sep-18 19:41 47.625608 -117.534069 279 2360ft 0kts
11-Sep-18 19:42 47.625527 -117.533372 305 2359ft 0kts
11-Sep-18 19:43 47.625463 -117.533439 106 2359ft 0kts
11-Sep-18 19:44 47.625462 -117.533432 106 2359ft 0kts
11-Sep-18 19:45 47.625336 -117.532842 112 2359ft 6kts
11-Sep-18 19:46 47.626241 -117.529777 44 2355ft 14kts
11-Sep-18 19:47 47.629645 -117.524665 44 2348ft 20kts
11-Sep-18 19:48 47.632156 -117.519837 127 2331ft 8kts
11-Sep-18 19:49 47.630729 -117.518993 225 2332ft 16kts
11-Sep-18 19:50 47.607043 -117.552954 220 3783ft 175kts
11-Sep-18 19:51 47.561992 -117.608928 220 6367ft 253kts
11-Sep-18 19:52 47.506021 -117.680379 220 9846ft 277kts
11-Sep-18 19:53 47.462668 -117.785694 248 11784ft 343kts
11-Sep-18 19:54 47.406361 -117.902614 231 14599ft 358kts
11-Sep-18 19:55 47.342946 -118.018397 231 17131ft 370kts
11-Sep-18 19:56 47.277586 -118.137393 231 19434ft 380kts
11-Sep-18 19:57 47.210913 -118.258191 231 21778ft 380kts
11-Sep-18 19:58 47.145203 -118.376781 231 23522ft 389kts
11-Sep-18 19:59 47.076757 -118.499740 231 24911ft 403kts
11-Sep-18 20:00 47.003228 -118.631301 231 25395ft 430kts
11-Sep-18 20:01 46.931933 -118.758135 231 25924ft 429kts
11-Sep-18 20:02 46.857831 -118.889365 231 25925ft 433kts
11-Sep-18 20:03 46.780765 -119.025211 231 25923ft 440kts
11-Sep-18 20:04 46.702107 -119.163186 231 25925ft 444kts
11-Sep-18 20:05 46.623682 -119.300013 231 25923ft 444kts
11-Sep-18 20:06 46.544517 -119.437469 231 25924ft 444kts
11-Sep-18 20:07 46.465126 -119.574612 231 25921ft 444kts
11-Sep-18 20:08 46.389218 -119.705038 230 25935ft 445kts
11-Sep-18 20:09 46.309394 -119.841515 230 25933ft 447kts
11-Sep-18 20:10 46.232187 -119.972605 231 25936ft 421kts
11-Sep-18 20:11 46.156813 -120.101259 230 25935ft 420kts
11-Sep-18 20:12 46.081119 -120.228796 230 25935ft 420kts
11-Sep-18 20:13 46.005315 -120.356000 230 25917ft 421kts
11-Sep-18 20:14 45.929918 -120.481919 230 25619ft 401kts
11-Sep-18 20:15 45.864649 -120.590378 231 24819ft 373kts
11-Sep-18 20:16 45.809587 -120.706658 248 23841ft 366kts
11-Sep-18 20:17 45.773285 -120.839639 248 21959ft 351kts
11-Sep-18 20:18 45.738231 -120.967117 248 20101ft 339kts
11-Sep-18 20:19 45.704342 -121.089794 248 18262ft 329kts
11-Sep-18 20:20 45.671083 -121.209557 248 16452ft 320kts
11-Sep-18 20:21 45.638622 -121.325874 248 14673ft 312kts
11-Sep-18 20:22 45.606781 -121.439510 249 13251ft 317kts
11-Sep-18 20:23 45.574818 -121.553786 249 11840ft 297kts
11-Sep-18 20:24 45.545867 -121.656714 248 11077ft 284kts
11-Sep-18 20:25 45.531239 -121.763515 272 10612ft 279kts
11-Sep-18 20:26 45.535204 -121.872728 272 10137ft 275kts
11-Sep-18 20:27 45.539104 -121.978444 274 9479ft 255kts
11-Sep-18 20:28 45.529023 -122.068100 236 8877ft 227kts
11-Sep-18 20:29 45.495016 -122.136063 237 7734ft 193kts
11-Sep-18 20:30 45.474316 -122.203048 279 5522ft 191kts
11-Sep-18 20:31 45.480512 -122.274583 279 4422ft 169kts
11-Sep-18 20:32 45.494644 -122.337475 295 3590ft 176kts
11-Sep-18 20:33 45.517798 -122.397686 297 2715ft 176kts
11-Sep-18 20:34 45.541935 -122.459815 298 1745ft 173kts
11-Sep-18 20:35 45.562638 -122.513043 299 914ft 139kts
11-Sep-18 20:36 45.581317 -122.561011 299 193ft 137kts
11-Sep-18 20:37 45.590295 -122.586337 273 26ft 6kts
11-Sep-18 20:38 45.590338 -122.587461 272 26ft 12kts
11-Sep-18 20:39 45.592662 -122.595569 299 28ft 20kts
11-Sep-18 20:40 45.592006 -122.597089 129 26ft 2kts

Navigation Log

Ident Type
Flight plan parsing failed, navigation log unavailable